createdAt,value
2024-02-13T00:00:55.350Z,952.6052856
2024-02-13T00:01:56.591Z,952.586853
2024-02-13T00:02:58.309Z,952.5964966
2024-02-13T00:03:59.943Z,952.6046143
2024-02-13T00:05:01.566Z,952.6439209
2024-02-13T00:06:03.358Z,952.6671143
2024-02-13T00:07:04.508Z,952.7009277
2024-02-13T00:08:05.863Z,952.7088013
2024-02-13T00:09:07.515Z,952.7045288
2024-02-13T00:10:09.138Z,952.7061157
2024-02-13T00:11:42.337Z,952.7399902
2024-02-13T00:12:43.666Z,952.7231445
2024-02-13T00:13:45.240Z,952.789978
2024-02-13T00:14:47.489Z,952.7351685
2024-02-13T00:15:48.399Z,952.8104858
2024-02-13T00:16:50.424Z,952.7689819
2024-02-13T00:17:52.365Z,952.8630981
2024-02-13T00:18:53.612Z,952.9104614
2024-02-13T00:19:55.007Z,952.8911133
2024-02-13T00:20:56.521Z,952.9331055
2024-02-13T00:21:58.093Z,952.9494019
2024-02-13T00:22:59.633Z,952.9553223
2024-02-13T00:24:02.611Z,952.9425049
2024-02-13T00:25:04.013Z,952.9558105
2024-02-13T00:26:05.728Z,952.9801636
2024-02-13T00:27:07.418Z,953.0045166
2024-02-13T00:28:09.281Z,953.0291138
2024-02-13T00:29:41.898Z,953.0314331
2024-02-13T00:30:43.112Z,953.0501709
2024-02-13T00:31:44.398Z,953.0493164
2024-02-13T00:32:45.810Z,953.0259399
2024-02-13T00:33:46.896Z,953.0871582
2024-02-13T00:34:47.931Z,953.1292114
2024-02-13T00:35:49.081Z,953.1234131
2024-02-13T00:36:50.490Z,953.1567383
2024-02-13T00:37:51.882Z,953.1871948
2024-02-13T00:38:53.308Z,953.1968994
2024-02-13T00:39:54.712Z,953.1925049
2024-02-13T00:40:56.611Z,953.2259521
2024-02-13T00:41:57.813Z,953.1896973
2024-02-13T00:42:59.039Z,953.2451782
2024-02-13T00:44:00.370Z,953.2713013
2024-02-13T00:45:01.909Z,953.2977905
2024-02-13T00:46:02.994Z,953.3186035
2024-02-13T00:47:04.189Z,953.3119507
2024-02-13T00:48:05.536Z,953.3365479
2024-02-13T00:49:06.306Z,953.3742065
2024-02-13T00:50:07.683Z,953.369873
2024-02-13T00:51:08.767Z,953.4026489
2024-02-13T00:52:10.438Z,953.4315796
2024-02-13T00:53:42.379Z,953.4337769
2024-02-13T00:54:43.736Z,953.4365845
2024-02-13T00:55:44.896Z,953.4893799
2024-02-13T00:56:46.346Z,953.4763794
2024-02-13T00:57:47.561Z,953.5133057
2024-02-13T00:58:48.746Z,953.4483032
2024-02-13T00:59:50.119Z,953.5067139
2024-02-13T01:00:51.287Z,953.4790649
2024-02-13T01:01:52.534Z,953.4768677
2024-02-13T01:02:54.173Z,953.5144043
2024-02-13T01:03:55.391Z,953.477478
2024-02-13T01:04:56.416Z,953.5410767
2024-02-13T01:05:57.773Z,953.5236816
2024-02-13T01:06:58.903Z,953.5317383
2024-02-13T01:08:00.300Z,953.5612793
2024-02-13T01:09:01.836Z,953.5724487
2024-02-13T01:10:03.016Z,953.5609131
2024-02-13T01:11:04.205Z,953.585144
2024-02-13T01:12:05.363Z,953.5973511
2024-02-13T01:13:06.711Z,953.6312256
2024-02-13T01:14:07.844Z,953.6818848
2024-02-13T01:15:09.191Z,953.7133789
2024-02-13T01:16:41.619Z,953.6854858
2024-02-13T01:17:42.828Z,953.7306519
2024-02-13T01:18:44.072Z,953.7332153
2024-02-13T01:19:45.176Z,953.7418823
2024-02-13T01:20:46.333Z,953.7583008
2024-02-13T01:21:47.561Z,953.7701416
2024-02-13T01:22:48.710Z,953.7974854
2024-02-13T01:23:50.150Z,953.8297729
2024-02-13T01:24:51.251Z,953.8548584
2024-02-13T01:25:52.539Z,953.8215332
2024-02-13T01:26:53.689Z,953.8537598
2024-02-13T01:27:54.783Z,953.8585815
2024-02-13T01:28:56.125Z,953.8703613
2024-02-13T01:29:56.561Z,953.8897095
2024-02-13T01:30:57.094Z,953.9268799
2024-02-13T01:31:57.793Z,953.9198608
2024-02-13T01:32:58.622Z,953.9387207
2024-02-13T01:33:59.254Z,953.9185791
2024-02-13T01:34:59.862Z,953.9282837
2024-02-13T01:36:00.541Z,953.9244385
2024-02-13T01:37:01.197Z,953.9699097
2024-02-13T01:38:01.881Z,953.9988403
2024-02-13T01:39:02.559Z,953.9806519
2024-02-13T01:40:03.295Z,954.0084229
2024-02-13T01:41:04.009Z,954.0028076
2024-02-13T01:42:04.774Z,954.0056152
2024-02-13T01:43:05.588Z,954.0342407
2024-02-13T01:44:06.501Z,954.0040894
2024-02-13T01:45:07.202Z,954.0131836
2024-02-13T01:46:07.925Z,954.0354004
2024-02-13T01:47:40.440Z,954.0209351
2024-02-13T01:49:41.173Z,954.0119019
2024-02-13T01:50:42.051Z,954.0183105
2024-02-13T01:51:42.724Z,954.0231934
2024-02-13T01:52:43.792Z,954.0150146
2024-02-13T01:53:44.690Z,954.0370483
2024-02-13T01:54:45.448Z,954.0192261
2024-02-13T01:55:46.201Z,954.0183105
2024-02-13T01:56:47.000Z,954.0091553
2024-02-13T01:57:47.693Z,954.0289307
2024-02-13T01:58:48.428Z,954.0586548
2024-02-13T01:59:49.319Z,954.0388184
2024-02-13T02:00:50.215Z,954.0490723
2024-02-13T02:01:50.848Z,954.0878296
2024-02-13T02:02:51.876Z,954.1051636
2024-02-13T02:03:52.657Z,954.1537476
2024-02-13T02:04:53.422Z,954.1567383
2024-02-13T02:05:54.168Z,954.1862793
2024-02-13T02:06:55.120Z,954.2040405
2024-02-13T02:07:55.901Z,954.1848145
2024-02-13T02:08:56.978Z,954.2160645
2024-02-13T02:09:57.703Z,954.2194824
2024-02-13T02:10:58.504Z,954.2092896
2024-02-13T02:11:59.439Z,954.1970215
2024-02-13T02:13:00.262Z,954.1470337
2024-02-13T02:14:01.080Z,954.1820068
2024-02-13T02:15:01.894Z,954.1529541
2024-02-13T02:16:02.742Z,954.1966553
2024-02-13T02:17:03.489Z,954.2120361
2024-02-13T02:18:04.378Z,954.203186
2024-02-13T02:19:05.268Z,954.2080688
2024-02-13T02:20:05.591Z,954.2379761
2024-02-13T02:21:06.474Z,954.1917725
2024-02-13T02:22:07.209Z,954.2315674
2024-02-13T02:23:40.198Z,954.203186
2024-02-13T02:25:40.301Z,954.262207
2024-02-13T02:26:41.027Z,954.2429199
2024-02-13T02:27:41.825Z,954.2542114
2024-02-13T02:28:42.473Z,954.2445068
2024-02-13T02:29:43.259Z,954.2902832
2024-02-13T02:30:44.148Z,954.2740479
2024-02-13T02:31:44.969Z,954.2991943
2024-02-13T02:32:45.929Z,954.3433838
2024-02-13T02:33:46.790Z,954.3030396
2024-02-13T02:34:47.621Z,954.350708
2024-02-13T02:35:48.453Z,954.3490601
2024-02-13T02:36:49.086Z,954.336792
2024-02-13T02:37:50.017Z,954.367981
2024-02-13T02:38:50.919Z,954.3792725
2024-02-13T02:39:51.697Z,954.4003296
2024-02-13T02:40:52.451Z,954.3717041
2024-02-13T02:41:53.228Z,954.371582
2024-02-13T02:42:54.187Z,954.385376
2024-02-13T02:43:54.980Z,954.3757324
2024-02-13T02:44:55.748Z,954.3601074
2024-02-13T02:45:56.359Z,954.3632813
2024-02-13T02:46:57.159Z,954.3897095
2024-02-13T02:47:58.085Z,954.4056396
2024-02-13T02:48:58.858Z,954.4014282
2024-02-13T02:49:59.675Z,954.3858032
2024-02-13T02:51:00.537Z,954.3979492
2024-02-13T02:52:01.113Z,954.4404907
2024-02-13T02:53:01.927Z,954.4160156
2024-02-13T02:54:02.760Z,954.3833008
2024-02-13T02:55:03.545Z,954.4279785
2024-02-13T02:56:04.446Z,954.4489136
2024-02-13T02:57:05.170Z,954.4682007
2024-02-13T02:58:05.873Z,954.4551392
2024-02-13T02:59:06.649Z,954.4614868
2024-02-13T03:00:39.706Z,954.4862671
2024-02-13T03:02:39.692Z,954.4813232
2024-02-13T03:03:40.512Z,954.5072021
2024-02-13T03:04:41.232Z,954.5626831
2024-02-13T03:05:42.161Z,954.5818481
2024-02-13T03:06:42.740Z,954.5786133
2024-02-13T03:07:43.513Z,954.4553833
2024-02-13T03:08:44.248Z,954.493042
2024-02-13T03:09:44.889Z,954.5367432
2024-02-13T03:10:45.632Z,954.5811157
2024-02-13T03:11:46.429Z,954.6009521
2024-02-13T03:12:47.167Z,954.559082
2024-02-13T03:13:47.894Z,954.6017456
2024-02-13T03:14:49.367Z,954.5973511
2024-02-13T03:15:50.123Z,954.6268921
2024-02-13T03:16:50.874Z,954.6096191
2024-02-13T03:17:51.846Z,954.6638184
2024-02-13T03:18:52.615Z,954.6026611
2024-02-13T03:19:53.253Z,954.6193848
2024-02-13T03:20:54.108Z,954.644043
2024-02-13T03:21:54.706Z,954.6741943
2024-02-13T03:22:55.575Z,954.6257935
2024-02-13T03:23:56.466Z,954.6902466
2024-02-13T03:24:57.239Z,954.6660767
2024-02-13T03:25:57.956Z,954.6912231
2024-02-13T03:26:58.787Z,954.701416
2024-02-13T03:27:59.713Z,954.725708
2024-02-13T03:29:00.488Z,954.7175293
2024-02-13T03:30:01.301Z,954.7254639
2024-02-13T03:31:02.046Z,954.7346802
2024-02-13T03:32:02.796Z,954.7081909
2024-02-13T03:33:03.767Z,954.711731
2024-02-13T03:34:04.700Z,954.6735229
2024-02-13T03:35:05.353Z,954.678894
2024-02-13T03:36:06.057Z,954.664856
2024-02-13T03:37:06.834Z,954.7006226
2024-02-13T03:38:38.439Z,954.6978149
2024-02-13T03:39:39.197Z,954.6813965
2024-02-13T03:40:40.225Z,954.7003174
2024-02-13T03:41:41.088Z,954.6662598
2024-02-13T03:42:41.791Z,954.6967773
2024-02-13T03:43:42.554Z,954.7295532
2024-02-13T03:44:43.388Z,954.694519
2024-02-13T03:45:44.102Z,954.7028198
2024-02-13T03:46:44.877Z,954.6917114
2024-02-13T03:47:47.249Z,954.7079468
2024-02-13T03:49:48.736Z,954.7359619
2024-02-13T03:51:48.305Z,954.7453003
2024-02-13T03:52:49.020Z,954.7459106
2024-02-13T03:53:49.884Z,954.751709
2024-02-13T03:54:50.827Z,954.7983398
2024-02-13T03:55:51.574Z,954.800293
2024-02-13T03:56:52.375Z,954.8267212
2024-02-13T03:57:53.058Z,954.8286133
2024-02-13T03:58:53.891Z,954.8484497
2024-02-13T03:59:54.688Z,954.8562012
2024-02-13T04:00:55.399Z,954.8623657
2024-02-13T04:01:56.135Z,954.8746948
2024-02-13T04:02:57.008Z,954.8795166
2024-02-13T04:03:58.042Z,954.8574219
2024-02-13T04:04:59.013Z,954.8115845
2024-02-13T04:05:59.972Z,954.8590698
2024-02-13T04:07:00.648Z,954.8833008
2024-02-13T04:08:01.538Z,954.8231201
2024-02-13T04:09:02.398Z,954.8262329
2024-02-13T04:10:03.206Z,954.8154907
2024-02-13T04:11:04.179Z,954.8696899
2024-02-13T04:12:04.927Z,954.8839722
2024-02-13T04:13:39.443Z,954.8699951
2024-02-13T04:14:40.177Z,954.8510742
2024-02-13T04:16:39.078Z,954.8605957
2024-02-13T04:17:40.137Z,954.8811035
2024-02-13T04:18:41.081Z,954.8326416
2024-02-13T04:19:41.961Z,954.8442383
2024-02-13T04:20:42.657Z,954.8215332
2024-02-13T04:21:43.591Z,954.8508301
2024-02-13T04:22:44.389Z,954.8968506
2024-02-13T04:23:45.335Z,954.87677
2024-02-13T04:24:46.133Z,954.9265137
2024-02-13T04:25:46.977Z,954.9509277
2024-02-13T04:26:47.761Z,954.9728394
2024-02-13T04:27:48.706Z,954.9840698
2024-02-13T04:28:49.833Z,954.9745483
2024-02-13T04:29:51.036Z,954.975708
2024-02-13T04:30:51.684Z,955.0046997
2024-02-13T04:31:52.546Z,955.0006104
2024-02-13T04:32:53.622Z,954.9935913
2024-02-13T04:33:54.210Z,954.9902954
2024-02-13T04:34:54.876Z,955.0335693
2024-02-13T04:35:55.586Z,954.9829712
2024-02-13T04:36:56.439Z,954.9673462
2024-02-13T04:37:57.280Z,955.0009155
2024-02-13T04:38:58.152Z,955.0540771
2024-02-13T04:39:59.077Z,955.0527954
2024-02-13T04:40:59.910Z,955.0339355
2024-02-13T04:42:00.912Z,955.0551758
2024-02-13T04:43:01.665Z,955.0340576
2024-02-13T04:44:02.417Z,955.0072021
2024-02-13T04:45:03.257Z,955.0292358
2024-02-13T04:46:04.130Z,955.0300293
2024-02-13T04:47:04.972Z,955.0410767
2024-02-13T04:48:38.882Z,955.0198975
2024-02-13T04:49:39.396Z,955.0692139
2024-02-13T04:51:39.003Z,955.053894
2024-02-13T04:52:39.720Z,955.0271606
2024-02-13T04:53:40.406Z,955.0614014
2024-02-13T04:54:41.127Z,955.0740356
2024-02-13T04:55:41.966Z,955.0516968
2024-02-13T04:56:42.744Z,955.0680542
2024-02-13T04:57:43.374Z,955.1268921
2024-02-13T04:58:44.053Z,955.105957
2024-02-13T04:59:44.931Z,955.095459
2024-02-13T05:00:45.689Z,955.1262207
2024-02-13T05:01:46.489Z,955.1159668
2024-02-13T05:02:47.214Z,955.1411133
2024-02-13T05:03:48.102Z,955.128418
2024-02-13T05:04:48.814Z,955.1422119
2024-02-13T05:05:49.945Z,955.0998535
2024-02-13T05:06:50.712Z,955.0990601
2024-02-13T05:07:51.343Z,955.1205444
2024-02-13T05:08:52.223Z,955.0720215
2024-02-13T05:09:52.877Z,955.1177979
2024-02-13T05:10:53.633Z,955.1086426
2024-02-13T05:11:54.518Z,955.0673218
2024-02-13T05:12:55.288Z,955.0829468
2024-02-13T05:13:59.011Z,955.0949707
2024-02-13T05:14:57.118Z,955.072998
2024-02-13T05:15:58.163Z,955.076355
2024-02-13T05:16:58.918Z,955.0797119
2024-02-13T05:17:59.738Z,955.100769
2024-02-13T05:19:00.631Z,955.0853271
2024-02-13T05:20:01.036Z,955.1170044
2024-02-13T05:21:01.943Z,955.1134644
2024-02-13T05:22:02.722Z,955.100769
2024-02-13T05:23:03.742Z,955.104248
2024-02-13T05:24:04.684Z,955.0828247
2024-02-13T05:25:05.421Z,955.157959
2024-02-13T05:26:38.865Z,955.1032104
2024-02-13T05:28:38.824Z,955.1409302
2024-02-13T05:29:39.529Z,955.1350098
2024-02-13T05:30:40.276Z,955.1716919
2024-02-13T05:31:41.097Z,955.1610107
2024-02-13T05:32:41.934Z,955.1740723
2024-02-13T05:33:42.761Z,955.1503296
2024-02-13T05:34:43.464Z,955.1392212
2024-02-13T05:35:44.389Z,955.1645508
2024-02-13T05:36:45.119Z,955.178772
2024-02-13T05:37:45.909Z,955.1843262
2024-02-13T05:38:46.848Z,955.2128296
2024-02-13T05:39:47.421Z,955.196167
2024-02-13T05:40:48.375Z,955.2125854
2024-02-13T05:41:49.296Z,955.2009277
2024-02-13T05:42:50.262Z,955.2310791
2024-02-13T05:43:51.067Z,955.2293701
2024-02-13T05:44:52.191Z,955.2026367
2024-02-13T05:45:53.031Z,955.2102051
2024-02-13T05:46:53.760Z,955.2154541
2024-02-13T05:47:54.657Z,955.2156372
2024-02-13T05:48:55.344Z,955.1793213
2024-02-13T05:49:56.160Z,955.1691895
2024-02-13T05:50:57.069Z,955.1323242
2024-02-13T05:51:57.948Z,955.1144409
2024-02-13T05:52:58.709Z,955.1051636
2024-02-13T05:53:59.974Z,955.1260376
2024-02-13T05:55:00.671Z,955.1060791
2024-02-13T05:56:01.540Z,955.1210327
2024-02-13T05:57:02.266Z,955.1289063
2024-02-13T05:58:02.988Z,955.1186523
2024-02-13T05:59:03.685Z,955.1176758
2024-02-13T06:00:04.688Z,955.1154785
2024-02-13T06:01:37.887Z,955.1260986
2024-02-13T06:02:38.501Z,955.187561
2024-02-13T06:04:38.405Z,955.2157593
2024-02-13T06:05:39.213Z,955.2341919
2024-02-13T06:06:39.978Z,955.2175903
2024-02-13T06:07:40.609Z,955.2332764
2024-02-13T06:08:41.635Z,955.2537231
2024-02-13T06:09:42.246Z,955.2738037
2024-02-13T06:10:43.004Z,955.2271729
2024-02-13T06:11:43.785Z,955.2131348
2024-02-13T06:12:44.482Z,955.2681274
2024-02-13T06:13:45.098Z,955.2217407
2024-02-13T06:14:45.945Z,955.2689209
2024-02-13T06:15:46.745Z,955.2645874
2024-02-13T06:16:47.436Z,955.2784424
2024-02-13T06:17:48.369Z,955.2628174
2024-02-13T06:18:49.510Z,955.2810669
2024-02-13T06:19:50.103Z,955.2771606
2024-02-13T06:20:51.059Z,955.2842407
2024-02-13T06:21:51.719Z,955.2824097
2024-02-13T06:22:52.457Z,955.2781982
2024-02-13T06:23:53.340Z,955.3048706
2024-02-13T06:24:54.013Z,955.3161011
2024-02-13T06:25:54.822Z,955.2737427
2024-02-13T06:26:57.114Z,955.3570557
2024-02-13T06:27:56.996Z,955.3392334
2024-02-13T06:28:58.111Z,955.3225098
2024-02-13T06:29:58.982Z,955.345459
2024-02-13T06:30:59.977Z,955.3605957
2024-02-13T06:32:03.902Z,955.3494263
2024-02-13T06:34:02.245Z,955.3476563
2024-02-13T06:35:02.954Z,955.3556519
2024-02-13T06:36:38.125Z,955.3878174
2024-02-13T06:37:39.005Z,955.3700562
2024-02-13T06:38:39.906Z,955.3934326
2024-02-13T06:40:37.752Z,955.3920898
2024-02-13T06:41:38.725Z,955.3939819
2024-02-13T06:42:39.532Z,955.3879395
2024-02-13T06:43:40.231Z,955.402832
2024-02-13T06:44:41.089Z,955.3770142
2024-02-13T06:45:41.967Z,955.4273682
2024-02-13T06:46:42.749Z,955.4076538
2024-02-13T06:47:43.653Z,955.4215698
2024-02-13T06:48:44.537Z,955.4376831
2024-02-13T06:49:45.206Z,955.4487305
2024-02-13T06:50:46.116Z,955.487793
2024-02-13T06:51:46.883Z,955.4833374
2024-02-13T06:52:47.700Z,955.46698
2024-02-13T06:53:48.650Z,955.4415894
2024-02-13T06:54:50.758Z,955.4790649
2024-02-13T06:55:50.666Z,955.4385376
2024-02-13T06:56:51.591Z,955.4615479
2024-02-13T06:57:52.634Z,955.5232544
2024-02-13T06:58:53.329Z,955.5272827
2024-02-13T06:59:54.366Z,955.5159912
2024-02-13T07:00:55.148Z,955.5236206
2024-02-13T07:01:55.949Z,955.5100098
2024-02-13T07:02:56.920Z,955.531311
2024-02-13T07:03:57.641Z,955.5673218
2024-02-13T07:04:58.426Z,955.5385742
2024-02-13T07:05:59.302Z,955.562561
2024-02-13T07:07:09.054Z,955.5769043
2024-02-13T07:08:01.229Z,955.600647
2024-02-13T07:09:02.052Z,955.6223145
2024-02-13T07:10:37.461Z,955.635376
2024-02-13T07:11:38.182Z,955.6209106
2024-02-13T07:12:39.034Z,955.6589966
2024-02-13T07:14:37.617Z,955.6606445
2024-02-13T07:15:38.670Z,955.6171875
2024-02-13T07:16:41.093Z,955.6034546
2024-02-13T07:18:41.188Z,955.6310425
2024-02-13T07:19:41.969Z,955.6612549
2024-02-13T07:20:42.786Z,955.6741943
2024-02-13T07:21:43.588Z,955.7070313
2024-02-13T07:22:44.380Z,955.7548218
2024-02-13T07:23:45.177Z,955.7301025
2024-02-13T07:24:46.051Z,955.7709351
2024-02-13T07:25:47.100Z,955.7754517
2024-02-13T07:26:48.008Z,955.7756348
2024-02-13T07:27:49.009Z,955.7814331
2024-02-13T07:28:49.964Z,955.7380981
2024-02-13T07:29:50.962Z,955.7617188
2024-02-13T07:30:51.938Z,955.7199707
2024-02-13T07:31:52.874Z,955.796875
2024-02-13T07:32:53.796Z,955.7633057
2024-02-13T07:33:54.621Z,955.7756958
2024-02-13T07:34:55.666Z,955.7904663
2024-02-13T07:35:56.899Z,955.8825073
2024-02-13T07:36:57.840Z,955.8793945
2024-02-13T07:37:58.642Z,955.835144
2024-02-13T07:38:59.520Z,955.8798218
2024-02-13T07:40:00.308Z,955.819519
2024-02-13T07:41:01.183Z,955.8343506
2024-02-13T07:42:02.071Z,955.8557739
2024-02-13T07:43:37.375Z,955.8968506
2024-02-13T07:44:38.221Z,955.8858643
2024-02-13T07:45:39.210Z,955.9207764
2024-02-13T07:47:37.863Z,955.9414063
2024-02-13T07:48:38.714Z,955.9185791
2024-02-13T07:49:39.697Z,955.9492798
2024-02-13T07:50:40.556Z,955.913147
2024-02-13T07:51:41.704Z,955.9202881
2024-02-13T07:52:42.581Z,955.9467163
2024-02-13T07:53:43.581Z,955.9262695
2024-02-13T07:54:44.134Z,955.927002
2024-02-13T07:55:44.850Z,955.9591675
2024-02-13T07:56:45.922Z,955.9777832
2024-02-13T07:57:46.785Z,955.9682617
2024-02-13T07:58:47.512Z,956.0213013
2024-02-13T07:59:48.546Z,955.9754639
2024-02-13T08:00:49.131Z,956.0010986
2024-02-13T08:01:50.257Z,955.9748535
2024-02-13T08:02:51.191Z,955.9747925
2024-02-13T08:03:52.177Z,955.9901733
2024-02-13T08:04:53.446Z,955.9505615
2024-02-13T08:05:54.157Z,955.9712524
2024-02-13T08:06:54.891Z,956.0144653
2024-02-13T08:07:55.731Z,955.9942017
2024-02-13T08:08:56.696Z,955.9637451
2024-02-13T08:09:57.485Z,956.013916
2024-02-13T08:10:58.457Z,956.0144653
2024-02-13T08:11:59.381Z,955.9832764
2024-02-13T08:13:00.258Z,956.0161133
2024-02-13T08:14:01.160Z,956.0229492
2024-02-13T08:15:02.297Z,956.0516968
2024-02-13T08:16:37.574Z,956.0648193
2024-02-13T08:17:37.908Z,956.0255737
2024-02-13T08:19:36.950Z,956.0587769
2024-02-13T08:20:37.843Z,956.0681763
2024-02-13T08:21:38.617Z,956.1134644
2024-02-13T08:22:39.446Z,956.0828247
2024-02-13T08:23:40.436Z,956.1436157
2024-02-13T08:24:41.334Z,956.0968628
2024-02-13T08:25:42.272Z,956.1329956
2024-02-13T08:26:43.590Z,956.0978394
2024-02-13T08:27:44.625Z,956.1532593
2024-02-13T08:28:46.042Z,956.1359253
2024-02-13T08:29:47.170Z,956.1362305
2024-02-13T08:30:47.963Z,956.1101685
2024-02-13T08:31:48.914Z,956.1157837
2024-02-13T08:32:50.048Z,956.1403809
2024-02-13T08:33:51.053Z,956.1590576
2024-02-13T08:34:51.766Z,956.1456299
2024-02-13T08:35:52.618Z,956.1504517
2024-02-13T08:36:53.260Z,956.0859985
2024-02-13T08:37:56.750Z,956.0814819
2024-02-13T08:38:54.777Z,956.133728
2024-02-13T08:39:55.439Z,956.0432739
2024-02-13T08:40:56.197Z,956.0973511
2024-02-13T08:41:57.661Z,956.1150513
2024-02-13T08:42:58.404Z,956.0820313
2024-02-13T08:43:59.028Z,956.1584473
2024-02-13T08:44:59.803Z,956.1479492
2024-02-13T08:46:00.690Z,956.1645508
2024-02-13T08:47:01.487Z,956.1116333
2024-02-13T08:48:02.511Z,956.1589355
2024-02-13T08:49:36.281Z,956.2178345
2024-02-13T08:50:36.918Z,956.1745605
2024-02-13T08:51:38.533Z,956.2050171
2024-02-13T08:53:36.900Z,956.2006226
2024-02-13T08:54:37.698Z,956.2044678
2024-02-13T08:55:38.462Z,956.1838989
2024-02-13T08:56:39.234Z,956.2226563
2024-02-13T08:57:39.933Z,956.2164307
2024-02-13T08:58:40.823Z,956.2209473
2024-02-13T08:59:41.676Z,956.2223511
2024-02-13T09:00:42.521Z,956.2084961
2024-02-13T09:01:43.326Z,956.2033081
2024-02-13T09:02:44.006Z,956.1917114
2024-02-13T09:03:44.714Z,956.196106
2024-02-13T09:04:45.544Z,956.1948242
2024-02-13T09:05:46.408Z,956.1920166
2024-02-13T09:06:47.224Z,956.1928711
2024-02-13T09:07:47.948Z,956.1740112
2024-02-13T09:08:48.722Z,956.2047729
2024-02-13T09:09:49.306Z,956.222168
2024-02-13T09:10:50.264Z,956.1835938
2024-02-13T09:11:51.003Z,956.2138062
2024-02-13T09:12:51.773Z,956.1720581
2024-02-13T09:13:52.762Z,956.1942749
2024-02-13T09:14:53.841Z,956.2003174
2024-02-13T09:15:54.446Z,956.1871948
2024-02-13T09:16:55.275Z,956.1942139
2024-02-13T09:17:56.156Z,956.203125
2024-02-13T09:18:58.008Z,956.2090454
2024-02-13T09:19:57.897Z,956.2306519
2024-02-13T09:20:58.759Z,956.2593994
2024-02-13T09:21:59.404Z,956.2687378
2024-02-13T09:23:00.162Z,956.2818604
2024-02-13T09:24:00.835Z,956.3101807
2024-02-13T09:25:01.536Z,956.3010864
2024-02-13T09:26:02.501Z,956.298584
2024-02-13T09:27:03.566Z,956.3256836
2024-02-13T09:28:04.258Z,956.3136597
2024-02-13T09:29:35.879Z,956.2800903
2024-02-13T09:30:36.735Z,956.305542
2024-02-13T09:31:37.602Z,956.2723389
2024-02-13T09:32:38.539Z,956.2993774
2024-02-13T09:33:39.232Z,956.3195801
2024-02-13T09:34:39.873Z,956.2644653
2024-02-13T09:35:40.538Z,956.2997437
2024-02-13T09:36:41.371Z,956.3682251
2024-02-13T09:37:44.464Z,956.3673706
2024-02-13T09:38:43.886Z,956.3428345
2024-02-13T09:39:44.495Z,956.3336182
2024-02-13T09:40:45.399Z,956.3696289
2024-02-13T09:41:46.531Z,956.3515625
2024-02-13T09:42:47.546Z,956.3534546
2024-02-13T09:43:51.254Z,956.362793
2024-02-13T09:44:49.992Z,956.3464966
2024-02-13T09:45:50.763Z,956.3897095
2024-02-13T09:46:51.906Z,956.364502
2024-02-13T09:47:53.188Z,956.3512573
2024-02-13T09:48:54.374Z,956.3736572
2024-02-13T09:49:55.150Z,956.3782959
2024-02-13T09:50:56.048Z,956.3740845
2024-02-13T09:51:57.378Z,956.395752
2024-02-13T09:52:58.160Z,956.4115601
2024-02-13T09:53:59.206Z,956.3520508
2024-02-13T09:55:00.217Z,956.375
2024-02-13T09:56:00.965Z,956.3566895
2024-02-13T09:57:01.902Z,956.3688965
2024-02-13T09:58:02.754Z,956.3134155
2024-02-13T09:59:35.967Z,956.3222046
2024-02-13T10:01:35.982Z,956.3954468
2024-02-13T10:02:36.770Z,956.3786011
2024-02-13T10:03:37.577Z,956.3728027
2024-02-13T10:04:38.201Z,956.369873
2024-02-13T10:05:39.093Z,956.3915405
2024-02-13T10:06:40.156Z,956.352356
2024-02-13T10:07:43.053Z,956.350647
2024-02-13T10:08:42.269Z,956.3809204
2024-02-13T10:09:42.845Z,956.317627
2024-02-13T10:10:43.993Z,956.34375
2024-02-13T10:11:44.930Z,956.3393555
2024-02-13T10:12:45.842Z,956.357605
2024-02-13T10:13:48.314Z,956.350647
2024-02-13T10:14:47.586Z,956.3772583
2024-02-13T10:15:48.464Z,956.3867188
2024-02-13T10:16:49.789Z,956.3624878
2024-02-13T10:17:50.735Z,956.4285889
2024-02-13T10:18:51.571Z,956.3880615
2024-02-13T10:19:52.470Z,956.3580322
2024-02-13T10:20:53.320Z,956.3770142
2024-02-13T10:21:54.032Z,956.3713379
2024-02-13T10:22:54.908Z,956.4086914
2024-02-13T10:23:55.866Z,956.4152832
2024-02-13T10:24:56.598Z,956.4106445
2024-02-13T10:25:57.441Z,956.4187622
2024-02-13T10:26:58.300Z,956.444397
2024-02-13T10:27:59.172Z,956.4506226
2024-02-13T10:29:00.027Z,956.4562378
2024-02-13T10:30:01.212Z,956.4440918
2024-02-13T10:31:02.015Z,956.4837646
2024-02-13T10:32:36.237Z,956.4503784
2024-02-13T10:33:37.271Z,956.5150146
2024-02-13T10:35:36.742Z,956.4795532
2024-02-13T10:36:37.964Z,956.5018921
2024-02-13T10:37:38.478Z,956.5090332
2024-02-13T10:38:39.100Z,956.4973145
2024-02-13T10:39:39.729Z,956.5045166
2024-02-13T10:40:40.514Z,956.491272
2024-02-13T10:41:41.823Z,956.507019
2024-02-13T10:42:42.075Z,956.5271606
2024-02-13T10:43:43.803Z,956.4884644
2024-02-13T10:44:43.889Z,956.487793
2024-02-13T10:45:44.556Z,956.5100708
2024-02-13T10:46:45.373Z,956.5065918
2024-02-13T10:47:46.335Z,956.505249
2024-02-13T10:48:47.287Z,956.5446777
2024-02-13T10:49:48.008Z,956.5378418
2024-02-13T10:50:49.112Z,956.5384521
2024-02-13T10:51:50.249Z,956.4926758
2024-02-13T10:52:51.060Z,956.5080566
2024-02-13T10:53:52.075Z,956.5150757
2024-02-13T10:54:53.130Z,956.5037231
2024-02-13T10:55:54.033Z,956.5184937
2024-02-13T10:56:54.944Z,956.5093994
2024-02-13T10:57:55.940Z,956.5306396
2024-02-13T10:58:57.102Z,956.5407715
2024-02-13T10:59:57.832Z,956.524292
2024-02-13T11:00:58.600Z,956.5356445
2024-02-13T11:01:59.818Z,956.5568848
2024-02-13T11:03:01.000Z,956.5267334
2024-02-13T11:04:01.694Z,956.5231323
2024-02-13T11:05:02.716Z,956.5178833
2024-02-13T11:06:03.424Z,956.513855
2024-02-13T11:07:34.706Z,956.5273438
2024-02-13T11:08:35.664Z,956.5108032
2024-02-13T11:09:36.404Z,956.5006104
2024-02-13T11:10:37.367Z,956.4810791
2024-02-13T11:11:38.304Z,956.4902344
2024-02-13T11:12:39.300Z,956.4927979
2024-02-13T11:13:40.144Z,956.5154419
2024-02-13T11:14:40.955Z,956.4780273
2024-02-13T11:15:41.789Z,956.473877
2024-02-13T11:16:42.641Z,956.4495239
2024-02-13T11:17:43.603Z,956.4161987
2024-02-13T11:18:44.452Z,956.4382935
2024-02-13T11:19:46.631Z,956.4332886
2024-02-13T11:20:46.229Z,956.4210205
2024-02-13T11:21:47.296Z,956.4285278
2024-02-13T11:22:48.174Z,956.4537354
2024-02-13T11:23:49.025Z,956.4732056
2024-02-13T11:24:50.877Z,956.4512329
2024-02-13T11:25:51.339Z,956.5019531
2024-02-13T11:26:52.185Z,956.4799805
2024-02-13T11:27:52.854Z,956.4762573
2024-02-13T11:28:53.658Z,956.4714355